Axtell, Texas
Current Conditions -  °F | °C
As of 12:55 PM on Monday 22 Dec 2014 (Local Time) from KCNW Reporting Station
Clear Clear  
Wind Chill: 23°   Ceiling: Unl
Heat Index: 23°   Visibility: 10mi
Dew Point:   Wind: 14mph
Humidity: 31%   Direction: 250°WSW
Pressure: 29.59"   Gusts: 21mph
Location:  31.66°N, 96.97°W
Report Text: KCNW 221855Z 25012G18KT 10SM SKC 23/05 A2959
Loading
Personal Weather Stations






























Interactive Weather Map New forecast layout! Learn more

10-Day Weather Forecast

Advertisements
Track Severe Weather on mobile